createdAt,value
2023-11-12T00:02:20.862Z,3.42
2023-11-12T00:04:48.429Z,3.37
2023-11-12T00:07:15.199Z,3.38
2023-11-12T00:09:41.858Z,3.41
2023-11-12T00:12:09.575Z,3.44
2023-11-12T00:14:36.216Z,3.46
2023-11-12T00:17:02.781Z,3.41
2023-11-12T00:19:32.132Z,3.43
2023-11-12T00:21:58.629Z,3.36
2023-11-12T00:24:25.138Z,3.40
2023-11-12T00:26:51.662Z,3.44
2023-11-12T00:29:18.452Z,3.40
2023-11-12T00:31:45.141Z,3.38
2023-11-12T00:34:11.675Z,3.43
2023-11-12T00:36:40.113Z,3.44
2023-11-12T00:39:06.613Z,3.43
2023-11-12T00:41:33.259Z,3.44
2023-11-12T00:43:59.828Z,3.44
2023-11-12T00:46:28.015Z,3.42
2023-11-12T00:48:54.556Z,3.47
2023-11-12T00:51:21.226Z,3.45
2023-11-12T00:53:47.731Z,3.42
2023-11-12T00:56:15.923Z,3.45
2023-11-12T00:58:44.093Z,3.39
2023-11-12T01:01:10.708Z,3.40
2023-11-12T01:03:37.299Z,3.41
2023-11-12T01:06:04.153Z,3.41
2023-11-12T01:08:31.566Z,3.42
2023-11-12T01:10:59.032Z,3.41
2023-11-12T01:13:26.107Z,3.45
2023-11-12T01:15:53.723Z,3.39
2023-11-12T01:18:21.675Z,3.41
2023-11-12T01:20:48.852Z,3.38
2023-11-12T01:23:15.572Z,3.36
2023-11-12T01:25:42.441Z,3.38
2023-11-12T01:28:09.604Z,3.34
2023-11-12T01:30:36.703Z,3.41
2023-11-12T01:33:05.080Z,3.30
2023-11-12T01:35:32.109Z,3.34
2023-11-12T01:37:58.931Z,3.21
2023-11-12T01:40:26.206Z,3.16
2023-11-12T01:42:52.774Z,3.11
2023-11-12T01:45:19.355Z,3.11
2023-11-12T01:47:46.758Z,3.02
2023-11-12T01:50:14.417Z,3.11
2023-11-12T01:52:42.235Z,3.15
2023-11-12T01:55:10.597Z,3.14
2023-11-12T01:57:39.458Z,3.08
2023-11-12T02:00:12.101Z,2.92
2023-11-12T02:02:39.240Z,2.85
2023-11-12T02:05:10.067Z,2.99
2023-11-12T02:07:38.409Z,2.85
2023-11-12T02:10:13.022Z,2.77
2023-11-12T02:12:45.061Z,2.81
2023-11-12T02:15:16.034Z,2.68
2023-11-12T02:17:44.736Z,2.62
2023-11-12T02:20:15.188Z,2.51
2023-11-12T02:22:42.804Z,2.57
2023-11-12T02:25:10.246Z,2.61
2023-11-12T02:27:37.139Z,2.31
2023-11-12T02:30:04.684Z,2.36
2023-11-12T02:32:33.521Z,2.14
2023-11-12T02:35:01.383Z,2.13
2023-11-12T02:37:27.897Z,2.24
2023-11-12T02:39:54.626Z,2.12
2023-11-12T02:42:23.041Z,2.26
2023-11-12T02:44:50.537Z,2.31
2023-11-12T02:47:18.141Z,2.22
2023-11-12T02:50:12.681Z,2.15
2023-11-12T02:52:39.214Z,2.12
2023-11-12T02:55:06.219Z,2.06
2023-11-12T02:57:33.765Z,2.11
2023-11-12T03:00:00.359Z,2.11
2023-11-12T03:02:26.951Z,1.93
2023-11-12T03:04:53.505Z,1.76
2023-11-12T03:07:20.075Z,1.61
2023-11-12T03:09:49.966Z,1.73
2023-11-12T03:12:16.828Z,1.77
2023-11-12T03:14:47.219Z,1.54
2023-11-12T03:17:14.061Z,1.83
2023-11-12T03:19:40.828Z,1.56
2023-11-12T03:22:10.223Z,1.53
2023-11-12T03:24:37.348Z,1.55
2023-11-12T03:27:04.736Z,1.47
2023-11-12T03:29:31.321Z,1.41
2023-11-12T03:31:59.163Z,1.32
2023-11-12T03:34:26.069Z,1.31
2023-11-12T03:36:52.859Z,1.27
2023-11-12T03:39:19.611Z,1.15
2023-11-12T03:41:46.213Z,1.17
2023-11-12T03:44:12.701Z,1.22
2023-11-12T03:46:39.265Z,1.41
2023-11-12T03:49:06.070Z,1.42
2023-11-12T03:51:33.660Z,1.19
2023-11-12T03:54:03.199Z,1.09
2023-11-12T03:56:30.923Z,1.15
2023-11-12T03:58:58.312Z,1.06
2023-11-12T04:01:25.879Z,1.00
2023-11-12T04:03:53.491Z,0.89
2023-11-12T04:06:21.056Z,0.88
2023-11-12T04:08:47.735Z,0.80
2023-11-12T04:11:14.398Z,0.87
2023-11-12T04:13:40.998Z,0.72
2023-11-12T04:16:08.214Z,0.84
2023-11-12T04:18:36.068Z,0.79
2023-11-12T04:21:04.492Z,0.61
2023-11-12T04:23:31.012Z,0.72
2023-11-12T04:25:58.573Z,0.75
2023-11-12T04:28:28.361Z,0.60
2023-11-12T04:30:56.025Z,0.60
2023-11-12T04:33:22.734Z,0.62
2023-11-12T04:35:51.104Z,0.42
2023-11-12T04:38:18.126Z,0.50
2023-11-12T04:40:45.605Z,0.54
2023-11-12T04:43:13.787Z,0.53
2023-11-12T04:45:40.469Z,0.38
2023-11-12T04:48:07.259Z,0.29
2023-11-12T04:50:34.212Z,0.33
2023-11-12T04:53:01.085Z,0.32
2023-11-12T04:55:27.646Z,0.26
2023-11-12T04:57:54.281Z,0.00
2023-11-12T05:00:21.006Z,0.09
2023-11-12T05:02:47.676Z,0.16
2023-11-12T05:05:14.574Z,0.13
2023-11-12T05:07:41.213Z,0.24
2023-11-12T05:10:12.453Z,0.21
2023-11-12T05:12:39.758Z,0.31
2023-11-12T05:15:10.422Z,0.16
2023-11-12T05:17:37.412Z,0.08
2023-11-12T05:20:05.284Z,0.11
2023-11-12T05:22:33.024Z,-0.02
2023-11-12T05:24:59.561Z,-0.18
2023-11-12T05:27:26.099Z,0.00
2023-11-12T05:29:53.411Z,0.02
2023-11-12T05:32:20.925Z,0.29
2023-11-12T05:34:47.467Z,0.17
2023-11-12T05:37:14.084Z,-0.14
2023-11-12T05:39:40.676Z,-0.05
2023-11-12T05:42:07.303Z,0.10
2023-11-12T05:44:33.876Z,-0.02
2023-11-12T05:47:00.689Z,0.06
2023-11-12T05:49:27.238Z,0.03
2023-11-12T05:51:53.770Z,0.03
2023-11-12T05:54:20.274Z,-0.05
2023-11-12T05:56:46.804Z,-0.03
2023-11-12T05:59:13.339Z,-0.02
2023-11-12T06:01:39.851Z,0.02
2023-11-12T06:04:06.579Z,-0.09
2023-11-12T06:06:33.230Z,-0.06
2023-11-12T06:08:59.780Z,-0.04
2023-11-12T06:11:26.622Z,-0.06
2023-11-12T06:13:53.313Z,-0.09
2023-11-12T06:16:20.366Z,-0.09
2023-11-12T06:18:47.154Z,-0.10
2023-11-12T06:21:14.419Z,0.03
2023-11-12T06:23:44.971Z,0.04
2023-11-12T06:26:12.140Z,-0.03
2023-11-12T06:28:38.981Z,-0.11
2023-11-12T06:31:08.328Z,-0.15
2023-11-12T06:33:34.887Z,-0.20
2023-11-12T06:36:02.577Z,-0.19
2023-11-12T06:38:29.101Z,-0.24
2023-11-12T06:40:55.632Z,-0.22
2023-11-12T06:43:22.150Z,-0.15
2023-11-12T06:45:48.695Z,-0.12
2023-11-12T06:48:15.406Z,-0.05
2023-11-12T06:50:41.966Z,-0.14
2023-11-12T06:53:10.005Z,-0.09
2023-11-12T06:55:36.580Z,-0.07
2023-11-12T06:58:03.119Z,-0.03
2023-11-12T07:00:29.664Z,-0.08
2023-11-12T07:02:56.503Z,-0.07
2023-11-12T07:05:23.457Z,-0.06
2023-11-12T07:07:49.990Z,-0.10
2023-11-12T07:10:16.588Z,-0.03
2023-11-12T07:12:44.076Z,0.03
2023-11-12T07:15:10.961Z,-0.12
2023-11-12T07:17:37.608Z,-0.01
2023-11-12T07:20:06.562Z,0.09
2023-11-12T07:22:36.879Z,0.07
2023-11-12T07:25:04.675Z,0.08
2023-11-12T07:27:33.198Z,0.00
2023-11-12T07:30:00.699Z,0.03
2023-11-12T07:32:27.199Z,0.17
2023-11-12T07:34:53.891Z,0.13
2023-11-12T07:37:20.913Z,0.13
2023-11-12T07:39:47.607Z,0.20
2023-11-12T07:42:14.278Z,0.25
2023-11-12T07:44:41.003Z,0.30
2023-11-12T07:47:07.738Z,0.22
2023-11-12T07:49:34.350Z,0.28
2023-11-12T07:52:01.789Z,0.36
2023-11-12T07:54:28.574Z,0.37
2023-11-12T07:56:55.263Z,0.47
2023-11-12T07:59:21.889Z,0.57
2023-11-12T08:01:49.345Z,0.56
2023-11-12T08:04:16.522Z,0.71
2023-11-12T08:06:47.170Z,0.56
2023-11-12T08:09:13.886Z,0.75
2023-11-12T08:11:43.947Z,0.77
2023-11-12T08:14:10.626Z,0.80
2023-11-12T08:16:37.975Z,0.89
2023-11-12T08:19:04.851Z,0.88
2023-11-12T08:21:31.481Z,0.97
2023-11-12T08:23:59.972Z,1.02
2023-11-12T08:26:28.788Z,1.11
2023-11-12T08:28:57.591Z,1.14
2023-11-12T08:31:27.185Z,1.19
2023-11-12T08:33:54.179Z,1.31
2023-11-12T08:36:20.892Z,1.47
2023-11-12T08:38:48.552Z,1.60
2023-11-12T08:41:15.179Z,1.67
2023-11-12T08:43:45.357Z,1.68
2023-11-12T08:46:12.997Z,1.81
2023-11-12T08:48:44.049Z,1.95
2023-11-12T08:51:11.455Z,2.10
2023-11-12T08:53:41.074Z,2.24
2023-11-12T08:56:09.364Z,2.31
2023-11-12T08:58:36.380Z,2.42
2023-11-12T09:01:05.372Z,2.43
2023-11-12T09:03:32.951Z,2.61
2023-11-12T09:05:59.575Z,2.74
2023-11-12T09:08:26.158Z,2.86
2023-11-12T09:10:52.677Z,3.10
2023-11-12T09:13:19.250Z,3.49
2023-11-12T09:15:45.874Z,3.75
2023-11-12T09:18:13.409Z,3.82
2023-11-12T09:20:40.006Z,3.92
2023-11-12T09:23:06.603Z,3.99
2023-11-12T09:25:33.287Z,4.10
2023-11-12T09:28:00.112Z,4.19
2023-11-12T09:30:33.788Z,4.40
2023-11-12T09:33:07.873Z,4.46
2023-11-12T09:35:34.511Z,4.49
2023-11-12T09:38:01.067Z,4.53
2023-11-12T09:40:32.305Z,4.85
2023-11-12T09:42:59.706Z,4.77
2023-11-12T09:45:29.974Z,5.03
2023-11-12T09:48:04.549Z,5.34
2023-11-12T09:50:32.434Z,5.58
2023-11-12T09:53:04.281Z,5.84
2023-11-12T09:55:31.926Z,6.12
2023-11-12T09:57:59.066Z,5.91
2023-11-12T10:00:25.745Z,6.38
2023-11-12T10:02:53.411Z,6.93
2023-11-12T10:05:20.151Z,7.20
2023-11-12T10:07:47.542Z,6.93
2023-11-12T10:10:21.811Z,7.51
2023-11-12T10:12:49.319Z,7.53
2023-11-12T10:15:22.382Z,8.04
2023-11-12T10:17:48.953Z,8.44
2023-11-12T10:20:22.334Z,11.73
2023-11-12T10:22:50.435Z,16.01
2023-11-12T10:25:43.904Z,19.95
2023-11-12T10:28:12.410Z,19.43
2023-11-12T10:30:40.529Z,21.01
2023-11-12T10:33:29.109Z,21.52
2023-11-12T10:35:56.816Z,19.15
2023-11-12T10:38:24.731Z,14.53
2023-11-12T10:41:03.245Z,13.32
2023-11-12T10:43:31.535Z,15.15
2023-11-12T10:46:04.686Z,16.88
2023-11-12T10:48:36.686Z,17.28
2023-11-12T10:51:06.572Z,18.16
2023-11-12T10:53:34.677Z,20.44
2023-11-12T10:56:02.390Z,18.20
2023-11-12T10:58:32.370Z,19.93
2023-11-12T11:01:02.572Z,23.19
2023-11-12T11:03:31.258Z,22.71
2023-11-12T11:06:00.870Z,21.34
2023-11-12T11:08:31.873Z,19.20
2023-11-12T11:11:00.349Z,18.44
2023-11-12T11:13:28.253Z,22.66
2023-11-12T11:15:59.306Z,20.46
2023-11-12T11:18:32.011Z,14.01
2023-11-12T11:21:09.989Z,15.73
2023-11-12T11:23:46.447Z,20.45
2023-11-12T11:26:24.935Z,21.91
2023-11-12T11:29:06.925Z,17.39
2023-11-12T11:31:47.012Z,17.21
2023-11-12T11:34:14.454Z,12.08
2023-11-12T11:36:56.842Z,18.92
2023-11-12T11:39:27.407Z,16.83
2023-11-12T11:41:56.854Z,13.14
2023-11-12T11:44:32.898Z,10.98
2023-11-12T11:47:22.985Z,10.03
2023-11-12T11:49:52.461Z,9.35
2023-11-12T11:52:25.396Z,9.46
2023-11-12T11:55:09.497Z,9.43
2023-11-12T11:57:47.113Z,8.37
2023-11-12T12:00:16.486Z,8.37
2023-11-12T12:02:45.331Z,8.68
2023-11-12T12:05:16.341Z,8.56
2023-11-12T12:07:47.160Z,8.43
2023-11-12T12:10:28.091Z,8.08
2023-11-12T12:12:55.324Z,8.01
2023-11-12T12:15:22.299Z,8.32
2023-11-12T12:17:49.038Z,8.17
2023-11-12T12:20:15.599Z,8.04
2023-11-12T12:22:42.817Z,8.21
2023-11-12T12:25:10.424Z,7.97
2023-11-12T12:27:38.569Z,8.28
2023-11-12T12:30:09.163Z,7.79
2023-11-12T12:32:38.015Z,7.71
2023-11-12T12:35:07.747Z,7.84
2023-11-12T12:37:34.646Z,7.90
2023-11-12T12:40:04.807Z,7.83
2023-11-12T12:42:32.031Z,7.69
2023-11-12T12:44:59.092Z,7.37
2023-11-12T12:47:43.782Z,7.47
2023-11-12T12:50:34.473Z,7.53
2023-11-12T12:53:14.309Z,7.48
2023-11-12T12:55:41.871Z,7.46
2023-11-12T12:58:08.514Z,7.31
2023-11-12T13:00:37.158Z,7.36
2023-11-12T13:03:04.335Z,7.48
2023-11-12T13:05:31.116Z,7.56
2023-11-12T13:07:57.930Z,7.45
2023-11-12T13:10:24.894Z,7.39
2023-11-12T13:12:53.191Z,7.51
2023-11-12T13:15:21.994Z,7.40
2023-11-12T13:17:49.350Z,7.30
2023-11-12T13:20:15.989Z,7.39
2023-11-12T13:22:42.820Z,7.46
2023-11-12T13:25:13.539Z,7.64
2023-11-12T13:27:40.467Z,7.80
2023-11-12T13:30:08.134Z,7.76
2023-11-12T13:32:35.433Z,7.95
2023-11-12T13:35:02.614Z,8.08
2023-11-12T13:37:31.130Z,8.23
2023-11-12T13:39:58.046Z,8.69
2023-11-12T13:42:24.797Z,8.60
2023-11-12T13:44:54.670Z,9.17
2023-11-12T13:47:23.754Z,9.63
2023-11-12T13:49:50.834Z,10.61
2023-11-12T13:52:18.500Z,10.80
2023-11-12T13:54:45.870Z,10.36
2023-11-12T13:57:13.521Z,9.10
2023-11-12T13:59:41.294Z,8.93
2023-11-12T14:02:09.550Z,9.01
2023-11-12T14:04:36.228Z,9.06
2023-11-12T14:07:05.383Z,8.40
2023-11-12T14:09:34.393Z,8.06
2023-11-12T14:12:08.767Z,8.00
2023-11-12T14:14:36.001Z,8.21
2023-11-12T14:17:08.645Z,8.33
2023-11-12T14:19:37.053Z,8.14
2023-11-12T14:22:05.546Z,8.15
2023-11-12T14:24:32.390Z,8.12
2023-11-12T14:26:59.199Z,8.21
2023-11-12T14:29:28.240Z,7.60
2023-11-12T14:31:54.856Z,7.70
2023-11-12T14:34:22.669Z,7.72
2023-11-12T14:36:51.401Z,7.67
2023-11-12T14:39:23.976Z,7.51
2023-11-12T14:41:51.065Z,7.38
2023-11-12T14:44:17.969Z,7.14
2023-11-12T14:46:45.363Z,7.20
2023-11-12T14:49:12.037Z,6.94
2023-11-12T14:51:42.645Z,6.82
2023-11-12T14:54:09.382Z,6.80
2023-11-12T14:56:39.325Z,6.74
2023-11-12T14:59:05.879Z,6.71
2023-11-12T15:01:32.675Z,6.70
2023-11-12T15:04:00.143Z,6.56
2023-11-12T15:06:27.004Z,6.61
2023-11-12T15:08:53.580Z,6.50
2023-11-12T15:11:20.427Z,6.51
2023-11-12T15:13:47.168Z,6.46
2023-11-12T15:16:21.678Z,6.31
2023-11-12T15:18:49.028Z,6.41
2023-11-12T15:21:15.743Z,6.24
2023-11-12T15:23:42.874Z,6.26
2023-11-12T15:26:15.821Z,6.21
2023-11-12T15:28:43.288Z,6.16
2023-11-12T15:31:12.200Z,6.18
2023-11-12T15:33:39.660Z,6.19
2023-11-12T15:36:08.317Z,5.99
2023-11-12T15:38:35.120Z,5.96
2023-11-12T15:41:02.884Z,5.97
2023-11-12T15:43:29.924Z,5.96
2023-11-12T15:45:57.822Z,5.90
2023-11-12T15:48:24.891Z,5.79
2023-11-12T15:50:51.414Z,5.88
2023-11-12T15:53:21.499Z,5.82
2023-11-12T15:55:48.392Z,5.95
2023-11-12T15:58:14.974Z,5.84
2023-11-12T16:00:42.857Z,5.89
2023-11-12T16:03:16.677Z,5.82
2023-11-12T16:05:45.438Z,5.78
2023-11-12T16:08:13.098Z,5.71
2023-11-12T16:10:39.784Z,5.59
2023-11-12T16:13:06.357Z,5.63
2023-11-12T16:15:34.429Z,5.60
2023-11-12T16:18:01.260Z,5.57
2023-11-12T16:20:27.952Z,5.43
2023-11-12T16:22:54.488Z,5.33
2023-11-12T16:25:21.070Z,5.33
2023-11-12T16:27:47.692Z,5.37
2023-11-12T16:30:14.576Z,5.43
2023-11-12T16:32:42.433Z,5.40
2023-11-12T16:35:12.796Z,5.50
2023-11-12T16:37:46.381Z,5.47
2023-11-12T16:40:14.272Z,5.25
2023-11-12T16:42:44.695Z,5.38
2023-11-12T16:45:12.530Z,5.19
2023-11-12T16:47:39.692Z,5.20
2023-11-12T16:50:08.238Z,5.13
2023-11-12T16:52:38.344Z,5.20
2023-11-12T16:55:06.087Z,5.08
2023-11-12T16:57:33.094Z,5.17
2023-11-12T17:00:00.555Z,5.03
2023-11-12T17:02:29.086Z,5.06
2023-11-12T17:04:56.285Z,5.01
2023-11-12T17:07:23.085Z,5.08
2023-11-12T17:09:49.792Z,5.09
2023-11-12T17:12:16.622Z,5.14
2023-11-12T17:14:43.476Z,5.02
2023-11-12T17:17:10.375Z,4.93
2023-11-12T17:19:36.991Z,4.84
2023-11-12T17:22:03.536Z,4.87
2023-11-12T17:24:30.172Z,4.75
2023-11-12T17:27:00.532Z,4.83
2023-11-12T17:29:28.147Z,4.83
2023-11-12T17:31:57.553Z,4.81
2023-11-12T17:34:24.196Z,4.74
2023-11-12T17:36:50.832Z,4.68
2023-11-12T17:39:17.664Z,4.76
2023-11-12T17:41:47.902Z,4.70
2023-11-12T17:44:15.294Z,4.61
2023-11-12T17:46:46.241Z,4.64
2023-11-12T17:49:13.361Z,4.53
2023-11-12T17:51:40.193Z,4.46
2023-11-12T17:54:07.318Z,4.71
2023-11-12T17:56:38.036Z,4.65
2023-11-12T17:59:04.664Z,4.59
2023-11-12T18:01:31.233Z,4.68
2023-11-12T18:03:59.871Z,4.37
2023-11-12T18:06:26.803Z,4.42
2023-11-12T18:08:53.415Z,4.30
2023-11-12T18:11:20.136Z,4.32
2023-11-12T18:13:46.669Z,4.39
2023-11-12T18:16:13.342Z,4.42
2023-11-12T18:18:42.162Z,4.35
2023-11-12T18:21:09.222Z,4.22
2023-11-12T18:23:35.846Z,4.43
2023-11-12T18:26:02.805Z,4.31
2023-11-12T18:28:29.802Z,4.08
2023-11-12T18:30:56.954Z,4.26
2023-11-12T18:33:23.656Z,4.12
2023-11-12T18:35:50.329Z,4.10
2023-11-12T18:38:18.788Z,4.21
2023-11-12T18:40:48.416Z,4.16
2023-11-12T18:43:16.647Z,4.09
2023-11-12T18:45:43.558Z,4.14
2023-11-12T18:48:11.557Z,3.98
2023-11-12T18:50:38.693Z,4.10
2023-11-12T18:53:05.487Z,4.07
2023-11-12T18:55:32.442Z,4.12
2023-11-12T18:57:59.411Z,4.05
2023-11-12T19:00:26.002Z,3.97
2023-11-12T19:02:54.400Z,3.97
2023-11-12T19:05:21.744Z,4.03
2023-11-12T19:07:48.538Z,3.90
2023-11-12T19:10:15.462Z,3.96
2023-11-12T19:12:42.544Z,3.85
2023-11-12T19:15:10.415Z,3.98
2023-11-12T19:17:38.566Z,4.03
2023-11-12T19:20:06.414Z,3.92
2023-11-12T19:22:33.375Z,3.86
2023-11-12T19:25:00.500Z,3.82
2023-11-12T19:27:27.836Z,3.90
2023-11-12T19:30:02.681Z,3.94
2023-11-12T19:32:38.357Z,3.87
2023-11-12T19:35:05.440Z,3.87
2023-11-12T19:37:33.552Z,3.79
2023-11-12T19:40:00.529Z,3.83
2023-11-12T19:42:29.097Z,3.83
2023-11-12T19:44:56.687Z,3.79
2023-11-12T19:47:23.779Z,3.78
2023-11-12T19:49:50.450Z,3.77
2023-11-12T19:52:18.144Z,3.69
2023-11-12T19:54:45.115Z,3.77
2023-11-12T19:57:11.897Z,3.74
2023-11-12T19:59:38.605Z,3.52
2023-11-12T20:02:05.743Z,3.60
2023-11-12T20:04:32.573Z,3.53
2023-11-12T20:07:00.463Z,3.47
2023-11-12T20:09:27.133Z,3.47
2023-11-12T20:11:53.714Z,3.34
2023-11-12T20:14:20.534Z,3.47
2023-11-12T20:16:48.555Z,3.42
2023-11-12T20:19:20.163Z,3.29
2023-11-12T20:21:49.752Z,3.35
2023-11-12T20:24:17.353Z,3.30
2023-11-12T20:26:51.409Z,3.28
2023-11-12T20:29:21.941Z,3.11
2023-11-12T20:31:55.505Z,3.18
2023-11-12T20:34:23.677Z,3.22
2023-11-12T20:36:51.614Z,3.10
2023-11-12T20:39:18.567Z,2.97
2023-11-12T20:41:46.398Z,2.95
2023-11-12T20:44:14.490Z,3.10
2023-11-12T20:46:48.026Z,2.95
2023-11-12T20:49:19.329Z,3.04
2023-11-12T20:51:47.712Z,2.79
2023-11-12T20:54:17.108Z,2.92
2023-11-12T20:56:43.816Z,2.94
2023-11-12T20:59:11.077Z,2.89
2023-11-12T21:01:38.346Z,2.92
2023-11-12T21:04:08.704Z,2.88
2023-11-12T21:06:38.995Z,2.97
2023-11-12T21:09:39.996Z,2.85
2023-11-12T21:12:07.366Z,2.88
2023-11-12T21:14:34.555Z,2.80
2023-11-12T21:17:01.172Z,2.77
2023-11-12T21:19:27.915Z,2.77
2023-11-12T21:21:54.516Z,2.87
2023-11-12T21:24:21.061Z,2.88
2023-11-12T21:26:48.052Z,2.87
2023-11-12T21:29:14.561Z,2.90
2023-11-12T21:31:46.388Z,2.84
2023-11-12T21:34:14.979Z,2.92
2023-11-12T21:36:41.579Z,2.92
2023-11-12T21:39:10.368Z,2.86
2023-11-12T21:41:38.329Z,2.69
2023-11-12T21:44:08.535Z,2.63
2023-11-12T21:46:35.626Z,2.85
2023-11-12T21:49:02.317Z,2.90
2023-11-12T21:51:28.885Z,2.85
2023-11-12T21:53:55.429Z,2.92
2023-11-12T21:56:21.972Z,2.84
2023-11-12T21:58:49.859Z,2.83
2023-11-12T22:01:16.542Z,2.79
2023-11-12T22:03:43.258Z,2.60
2023-11-12T22:06:09.874Z,2.62
2023-11-12T22:08:36.492Z,2.62
2023-11-12T22:11:03.486Z,2.84
2023-11-12T22:13:32.118Z,2.61
2023-11-12T22:15:58.819Z,2.68
2023-11-12T22:18:25.428Z,2.81
2023-11-12T22:20:52.588Z,2.81
2023-11-12T22:23:19.424Z,2.79
2023-11-12T22:25:45.922Z,2.74
2023-11-12T22:28:12.681Z,2.77
2023-11-12T22:30:40.288Z,2.68
2023-11-12T22:33:07.064Z,2.75
2023-11-12T22:35:33.603Z,2.63
2023-11-12T22:38:00.108Z,2.67
2023-11-12T22:40:26.694Z,2.73
2023-11-12T22:42:53.704Z,2.95
2023-11-12T22:45:23.551Z,2.88
2023-11-12T22:47:50.198Z,2.88
2023-11-12T22:50:22.125Z,2.87
2023-11-12T22:52:48.907Z,2.94
2023-11-12T22:55:16.159Z,2.86
2023-11-12T22:57:44.617Z,2.87
2023-11-12T23:00:40.510Z,2.81
2023-11-12T23:03:10.950Z,2.80
2023-11-12T23:05:37.652Z,2.85
2023-11-12T23:08:07.370Z,2.89
2023-11-12T23:10:38.210Z,2.85
2023-11-12T23:13:05.014Z,2.75
2023-11-12T23:15:32.721Z,2.70
2023-11-12T23:18:02.179Z,2.93
2023-11-12T23:20:29.511Z,2.95
2023-11-12T23:22:56.062Z,2.84
2023-11-12T23:25:22.692Z,2.89
2023-11-12T23:27:49.272Z,2.93
2023-11-12T23:30:15.903Z,2.84
2023-11-12T23:32:45.532Z,2.79
2023-11-12T23:35:12.259Z,2.84
2023-11-12T23:37:38.992Z,2.88
2023-11-12T23:40:06.272Z,2.87
2023-11-12T23:42:32.843Z,2.83
2023-11-12T23:44:59.390Z,2.91
2023-11-12T23:47:25.991Z,2.92
2023-11-12T23:49:52.587Z,2.86
2023-11-12T23:52:20.040Z,2.94
2023-11-12T23:54:46.765Z,2.88
2023-11-12T23:57:14.227Z,2.89
2023-11-12T23:59:42.310Z,2.90
